Time;durP1;ratioP1;P1;durP2;ratioP2;P2;SDS_P1;SDS_P2;PMS_P1;PMS_P2;Temp;Humidity;BMP_temperature;BMP_pressure;BME280_temperature;BME280_humidity;BME280_pressure;Samples;Min_cycle;Max_cycle;Signal;HPM_P1;HPM_P2
2022/11/10 00:02:44;;;;;;;;;;;;;;;1.20;83.19;102229.01;1901753;75;20148;-60
2022/11/10 00:05:30;;;;;;;;;;;;;;;1.20;83.08;102230.30;1899290;75;20115;-59
2022/11/10 00:08:16;;;;;;;;;;;;;;;1.15;83.03;102228.48;1900893;75;20123;-60
2022/11/10 00:11:05;;;;;;;;;;;;;;;1.11;83.10;102228.39;1902547;75;20377;-59
2022/11/10 00:17:00;;;;;;;;;;;;;;;1.15;82.99;102229.78;1899688;75;20241;-55
2022/11/10 00:19:46;;;;;;;;;;;;;;;1.14;83.00;102229.74;1899488;75;20114;-56
2022/11/10 00:22:33;;;;;;;;;;;;;;;1.08;83.47;102225.28;1902219;75;20298;-55
2022/11/10 00:25:19;;;;;;;;;;;;;;;1.08;83.55;102226.58;1902152;75;20174;-58
2022/11/10 00:28:05;;;;;;;;;;;;;;;1.11;83.47;102224.50;1902745;75;20157;-55
2022/11/10 00:30:50;;;;;;;;;;;;;;;1.20;83.33;102227.71;1895721;75;20173;-54
2022/11/10 00:33:37;;;;;;;;;;;;;;;1.23;83.35;102227.80;1902540;75;20504;-57
2022/11/10 00:36:23;;;;;;;;;;;;;;;1.26;83.24;102227.45;1905788;75;20213;-53
2022/11/10 00:39:09;;;;;;;;;;;;;;;1.26;83.18;102225.28;1915181;75;20561;-57
2022/11/10 00:41:55;;;;;;;;;;;;;;;1.26;83.19;102233.06;1899320;75;20171;-54
2022/11/10 00:44:41;;;;;;;;;;;;;;;1.21;83.41;102230.34;1894859;75;20189;-57
2022/11/10 00:47:27;;;;;;;;;;;;;;;1.17;83.49;102232.42;1892465;75;20205;-56
2022/11/10 00:50:13;;;;;;;;;;;;;;;1.11;83.67;102238.34;1924313;75;20173;-57
2022/11/10 00:52:59;;;;;;;;;;;;;;;1.11;83.76;102235.75;1924895;74;20199;-58
2022/11/10 00:55:45;;;;;;;;;;;;;;;1.20;83.50;102227.71;1915528;74;20897;-59
2022/11/10 00:58:31;;;;;;;;;;;;;;;1.26;83.47;102231.77;1921926;75;20126;-61
2022/11/10 01:01:18;;;;;;;;;;;;;;;1.26;83.49;102222.26;1910156;75;20116;-60
2022/11/10 01:04:03;;;;;;;;;;;;;;;1.25;83.60;102232.59;1916308;75;20107;-56
2022/11/10 01:06:51;;;;;;;;;;;;;;;1.29;83.52;102227.92;1918681;75;20162;-55
2022/11/10 01:09:37;;;;;;;;;;;;;;;1.33;83.46;102233.66;1904536;75;20150;-59
2022/11/10 01:12:23;;;;;;;;;;;;;;;1.34;83.46;102227.61;1937911;74;20136;-59
2022/11/10 01:15:10;;;;;;;;;;;;;;;1.38;83.42;102237.65;1938752;74;20188;-59
2022/11/10 01:17:56;;;;;;;;;;;;;;;1.40;83.41;102239.42;1938867;74;20187;-50
2022/11/10 01:20:42;;;;;;;;;;;;;;;1.46;83.25;102240.88;1938879;74;20431;-54
2022/11/10 01:23:27;;;;;;;;;;;;;;;1.44;83.30;102236.08;1938760;74;20110;-54
2022/11/10 01:26:14;;;;;;;;;;;;;;;1.41;83.34;102229.52;1899789;75;20144;-54
2022/11/10 01:28:59;;;;;;;;;;;;;;;1.38;83.61;102239.81;1938084;74;20458;-52
2022/11/10 01:31:45;;;;;;;;;;;;;;;1.40;83.50;102236.83;1917459;74;20144;-53
2022/11/10 01:34:31;;;;;;;;;;;;;;;1.35;83.61;102247.55;1938899;74;20397;-53
2022/11/10 01:37:17;;;;;;;;;;;;;;;1.29;83.90;102237.91;1897873;75;20245;-54
2022/11/10 01:40:04;;;;;;;;;;;;;;;1.28;84.09;102243.92;1909688;75;20119;-51
2022/11/10 01:42:58;;;;;;;;;;;;;;;1.25;84.19;102242.97;1908208;75;20203;-50
2022/11/10 01:45:48;;;;;;;;;;;;;;;1.31;84.22;102250.89;1903908;75;20111;-49
2022/11/10 01:48:35;;;;;;;;;;;;;;;1.41;84.05;102254.17;1877359;76;20163;-53
2022/11/10 01:51:26;;;;;;;;;;;;;;;1.49;83.95;102259.10;1908997;75;20139;-51
2022/11/10 01:54:13;;;;;;;;;;;;;;;1.57;83.75;102254.11;1909763;75;20119;-56
2022/11/10 01:57:00;;;;;;;;;;;;;;;1.65;83.60;102254.27;1909410;75;20115;-59
2022/11/10 01:59:47;;;;;;;;;;;;;;;1.63;83.55;102258.13;1909570;75;20118;-57
2022/11/10 02:02:35;;;;;;;;;;;;;;;1.62;83.57;102264.16;1902996;75;20115;-58
2022/11/10 02:05:22;;;;;;;;;;;;;;;1.62;83.68;102261.98;1899164;75;20456;-52
2022/11/10 02:08:08;;;;;;;;;;;;;;;1.65;83.69;102269.42;1905065;75;20141;-57
2022/11/10 02:10:54;;;;;;;;;;;;;;;1.68;83.71;102264.31;1893754;75;20115;-57
2022/11/10 02:13:40;;;;;;;;;;;;;;;1.71;83.66;102276.47;1909450;75;20221;-55
2022/11/10 02:16:26;;;;;;;;;;;;;;;1.72;83.69;102276.51;1909546;75;20140;-50
2022/11/10 02:19:17;;;;;;;;;;;;;;;1.70;83.70;102276.03;1907950;75;20110;-50
2022/11/10 02:22:03;;;;;;;;;;;;;;;1.72;83.58;102274.34;1895460;75;20142;-53
2022/11/10 02:24:49;;;;;;;;;;;;;;;1.71;83.64;102280.37;1907078;75;20432;-57
2022/11/10 02:27:35;;;;;;;;;;;;;;;1.65;83.70;102276.34;1909240;75;20131;-57
2022/11/10 02:30:20;;;;;;;;;;;;;;;1.62;83.74;102272.38;1908119;75;20381;-56
2022/11/10 02:33:06;;;;;;;;;;;;;;;1.57;84.04;102279.17;1909322;75;20137;-57
2022/11/10 02:35:52;;;;;;;;;;;;;;;1.56;84.07;102280.03;1908465;75;20132;-56
2022/11/10 02:38:39;;;;;;;;;;;;;;;1.63;83.97;102279.33;1898747;75;20145;-57
2022/11/10 02:41:24;;;;;;;;;;;;;;;1.68;83.98;102281.19;1928428;74;20149;-57
2022/11/10 02:44:10;;;;;;;;;;;;;;;1.73;83.98;102278.67;1929325;74;20148;-56
2022/11/10 02:46:56;;;;;;;;;;;;;;;1.77;83.92;102276.63;1929289;74;20107;-58
2022/11/10 02:49:43;;;;;;;;;;;;;;;1.81;83.94;102287.53;1929366;74;20137;-57
2022/11/10 02:52:29;;;;;;;;;;;;;;;1.85;83.92;102286.75;1929329;74;20138;-58
2022/11/10 02:55:15;;;;;;;;;;;;;;;1.91;83.78;102287.30;1929400;74;20352;-58
2022/11/10 02:58:01;;;;;;;;;;;;;;;1.97;83.67;102293.05;1929398;74;20130;-56
2022/11/10 03:00:47;;;;;;;;;;;;;;;2.03;83.58;102295.77;1929442;74;20407;-56
2022/11/10 03:03:34;;;;;;;;;;;;;;;2.06;83.51;102301.03;1899996;75;20119;-57
2022/11/10 03:06:20;;;;;;;;;;;;;;;2.09;83.42;102303.28;1905568;75;20480;-57
2022/11/10 03:09:05;;;;;;;;;;;;;;;2.15;83.29;102309.03;1899476;75;20195;-53
2022/11/10 03:11:51;;;;;;;;;;;;;;;2.18;83.28;102305.20;1909631;75;20123;-56
2022/11/10 03:14:37;;;;;;;;;;;;;;;2.19;83.32;102308.23;1882995;75;20415;-55
2022/11/10 03:17:23;;;;;;;;;;;;;;;2.14;83.47;102308.59;1925564;74;20143;-55
2022/11/10 03:20:09;;;;;;;;;;;;;;;2.13;83.66;102305.09;1929388;74;20147;-54
2022/11/10 03:22:57;;;;;;;;;;;;;;;2.12;83.77;102303.75;1929299;74;20246;-53
2022/11/10 03:25:42;;;;;;;;;;;;;;;2.20;83.72;102301.34;1883216;75;20120;-53
2022/11/10 03:28:28;;;;;;;;;;;;;;;2.26;83.53;102297.13;1927920;74;20120;-53
2022/11/10 03:31:14;;;;;;;;;;;;;;;2.31;83.31;102305.90;1902491;75;20237;-57
2022/11/10 03:34:00;;;;;;;;;;;;;;;2.37;83.15;102306.88;1918717;75;20225;-57
2022/11/10 03:36:46;;;;;;;;;;;;;;;2.40;83.08;102303.02;1914899;75;20111;-57
2022/11/10 03:39:33;;;;;;;;;;;;;;;2.42;82.93;102306.55;1884174;76;20149;-57
2022/11/10 03:42:19;;;;;;;;;;;;;;;2.43;82.75;102309.16;1875782;76;20564;-57
2022/11/10 03:45:05;;;;;;;;;;;;;;;2.44;82.62;102302.25;1861834;77;20123;-57
2022/11/10 03:47:51;;;;;;;;;;;;;;;2.45;82.56;102307.48;1884967;76;20164;-56
2022/11/10 03:50:37;;;;;;;;;;;;;;;2.43;82.48;102305.25;1870782;76;20147;-56
2022/11/10 03:53:23;;;;;;;;;;;;;;;2.44;82.44;102310.05;1857658;77;20112;-57
2022/11/10 03:56:09;;;;;;;;;;;;;;;2.39;82.40;102311.24;1890650;76;20120;-58
2022/11/10 03:58:55;;;;;;;;;;;;;;;2.39;82.38;102311.68;1890788;76;20172;-58
2022/11/10 04:01:40;;;;;;;;;;;;;;;2.39;82.35;102317.74;1896162;76;20157;-51
2022/11/10 04:10:24;;;;;;;;;;;;;;;2.31;82.40;102321.50;1895458;76;20112;-59
2022/11/10 04:16:13;;;;;;;;;;;;;;;2.28;82.44;102330.52;1864380;77;20424;-57
2022/11/10 04:19:04;;;;;;;;;;;;;;;2.27;82.49;102335.28;1859936;77;20267;-59
2022/11/10 04:21:49;;;;;;;;;;;;;;;2.27;82.45;102336.58;1887406;76;20143;-58
2022/11/10 04:24:34;;;;;;;;;;;;;;;2.27;82.44;102339.18;1894454;76;20397;-60
2022/11/10 04:27:20;;;;;;;;;;;;;;;2.28;82.42;102347.41;1896126;76;20215;-50
2022/11/10 04:30:07;;;;;;;;;;;;;;;2.28;82.47;102353.05;1873861;76;20156;-50
2022/11/10 04:32:53;;;;;;;;;;;;;;;2.26;82.56;102356.91;1896248;76;20168;-61
2022/11/10 04:35:40;;;;;;;;;;;;;;;2.25;82.58;102357.77;1896284;76;20171;-65
2022/11/10 04:38:26;;;;;;;;;;;;;;;2.28;82.52;102360.41;1909315;74;20101;-61
2022/11/10 04:41:12;;;;;;;;;;;;;;;2.30;82.50;102361.31;1890086;76;20142;-61
2022/11/10 04:43:58;;;;;;;;;;;;;;;2.32;82.53;102366.55;1910724;75;20134;-65
2022/11/10 04:46:44;;;;;;;;;;;;;;;2.33;82.54;102364.86;1911640;75;20114;-61
2022/11/10 04:49:30;;;;;;;;;;;;;;;2.31;82.64;102371.31;1911659;75;20194;-59
2022/11/10 04:52:16;;;;;;;;;;;;;;;2.30;82.73;102373.45;1888889;75;20164;-63
2022/11/10 04:55:02;;;;;;;;;;;;;;;2.33;82.72;102377.85;1879031;76;20177;-60
2022/11/10 04:57:48;;;;;;;;;;;;;;;2.38;82.66;102378.80;1879168;76;20120;-58
2022/11/10 05:00:34;;;;;;;;;;;;;;;2.41;82.65;102382.78;1878985;76;20132;-59
2022/11/10 05:03:20;;;;;;;;;;;;;;;2.46;82.62;102385.05;1879751;76;20168;-56
2022/11/10 05:06:05;;;;;;;;;;;;;;;2.46;82.62;102390.26;1879007;76;20141;-63
2022/11/10 05:08:52;;;;;;;;;;;;;;;2.47;82.63;102390.69;1878911;76;20386;-61
2022/11/10 05:11:37;;;;;;;;;;;;;;;2.51;82.56;102391.23;1878984;76;20120;-59
2022/11/10 05:14:23;;;;;;;;;;;;;;;2.54;82.58;102391.71;1891630;75;20130;-55
2022/11/10 05:17:09;;;;;;;;;;;;;;;2.53;82.58;102399.95;1890905;76;20119;-49
2022/11/10 05:19:55;;;;;;;;;;;;;;;2.53;82.71;102405.14;1905763;75;20115;-56
2022/11/10 05:22:42;;;;;;;;;;;;;;;2.56;82.64;102410.39;1906543;75;20125;-52
2022/11/10 05:25:28;;;;;;;;;;;;;;;2.60;82.58;102412.23;1878867;76;20139;-53
2022/11/10 05:28:15;;;;;;;;;;;;;;;2.67;82.56;102413.22;1879000;76;20394;-50
2022/11/10 05:31:01;;;;;;;;;;;;;;;2.70;82.57;102416.76;1912393;74;20122;-49
2022/11/10 05:33:47;;;;;;;;;;;;;;;2.74;82.49;102422.03;1911569;75;20148;-56
2022/11/10 05:36:33;;;;;;;;;;;;;;;2.80;82.44;102425.62;1911581;75;20104;-56
2022/11/10 05:39:19;;;;;;;;;;;;;;;2.80;82.42;102421.72;1911647;74;20141;-57
2022/11/10 05:42:05;;;;;;;;;;;;;;;2.81;82.38;102424.78;1911500;75;20402;-62
2022/11/10 05:44:51;;;;;;;;;;;;;;;2.86;82.37;102432.70;1850662;75;20148;-56
2022/11/10 05:47:37;;;;;;;;;;;;;;;2.91;82.38;102434.94;1862507;77;20151;-49
2022/11/10 05:50:24;;;;;;;;;;;;;;;2.96;82.31;102425.94;1862382;77;20142;-53
2022/11/10 05:53:10;;;;;;;;;;;;;;;3.01;82.32;102434.72;1892598;75;20230;-54
2022/11/10 05:55:56;;;;;;;;;;;;;;;3.02;82.42;102434.72;1862481;77;20429;-57
2022/11/10 05:58:42;;;;;;;;;;;;;;;3.04;82.27;102435.66;1862407;77;20147;-53
2022/11/10 06:01:28;;;;;;;;;;;;;;;3.06;82.23;102440.47;1862482;77;20185;-55
2022/11/10 06:04:14;;;;;;;;;;;;;;;3.03;82.22;102443.00;1914611;75;20238;-50
2022/11/10 06:06:59;;;;;;;;;;;;;;;3.01;82.23;102442.53;1922094;75;20147;-53
2022/11/10 06:09:47;;;;;;;;;;;;;;;2.99;82.31;102444.19;1922076;75;20173;-49
2022/11/10 06:12:33;;;;;;;;;;;;;;;3.00;82.32;102441.62;1922133;75;20114;-48
2022/11/10 06:15:19;;;;;;;;;;;;;;;3.00;82.36;102441.62;1920061;75;20133;-51
2022/11/10 06:18:05;;;;;;;;;;;;;;;2.99;82.43;102441.59;1922036;75;20118;-40
2022/11/10 06:20:51;;;;;;;;;;;;;;;2.98;82.44;102438.12;1862555;77;20202;-41
2022/11/10 06:23:37;;;;;;;;;;;;;;;2.98;82.76;102439.86;1887018;75;20110;-56
2022/11/10 06:26:23;;;;;;;;;;;;;;;3.07;82.82;102436.13;1907637;75;20159;-42
2022/11/10 06:29:09;;;;;;;;;;;;;;;3.19;82.69;102430.27;1895998;76;20141;-41
2022/11/10 06:31:56;;;;;;;;;;;;;;;3.27;82.73;102439.11;1896412;75;20469;-54
2022/11/10 06:34:42;;;;;;;;;;;;;;;3.38;82.70;102437.58;1906583;75;20497;-47
2022/11/10 06:37:28;;;;;;;;;;;;;;;3.45;82.48;102434.23;1894566;76;20397;-53
2022/11/10 06:40:14;;;;;;;;;;;;;;;3.45;82.42;102435.53;1896637;75;20111;-52
2022/11/10 06:43:00;;;;;;;;;;;;;;;3.47;82.41;102436.44;1912176;75;20150;-50
2022/11/10 06:45:46;;;;;;;;;;;;;;;3.48;82.38;102436.87;1909828;75;20307;-50
2022/11/10 06:48:32;;;;;;;;;;;;;;;3.54;82.32;102441.74;1912224;75;20427;-49
2022/11/10 06:51:18;;;;;;;;;;;;;;;3.59;82.18;102437.49;1909169;75;20133;-51
2022/11/10 06:54:04;;;;;;;;;;;;;;;3.65;82.10;102442.80;1898768;76;20393;-50
2022/11/10 06:56:50;;;;;;;;;;;;;;;3.67;82.08;102443.30;1893879;75;20155;-50
2022/11/10 06:59:36;;;;;;;;;;;;;;;3.64;82.09;102446.27;1898893;75;20110;-50
2022/11/10 07:02:21;;;;;;;;;;;;;;;3.66;82.07;102447.17;1930257;74;20164;-51
2022/11/10 07:05:08;;;;;;;;;;;;;;;3.65;82.04;102448.01;1932094;74;20142;-47
2022/11/10 07:07:53;;;;;;;;;;;;;;;3.64;82.15;102442.36;1931990;74;20161;-54
2022/11/10 07:10:39;;;;;;;;;;;;;;;3.64;82.32;102438.02;1936912;74;20153;-54
2022/11/10 07:13:25;;;;;;;;;;;;;;;3.66;82.27;102447.17;1899983;75;20152;-56
2022/11/10 07:16:16;;;;;;;;;;;;;;;3.72;82.28;102449.00;1901059;75;20156;-55
2022/11/10 07:19:01;;;;;;;;;;;;;;;3.74;82.19;102450.77;1900995;75;20422;-56
2022/11/10 07:21:47;;;;;;;;;;;;;;;3.80;82.08;102453.50;1907918;75;20138;-41
2022/11/10 07:24:52;;;;;;;;;;;;;;;3.84;82.05;102457.90;1891072;75;20148;-57
2022/11/10 07:27:38;;;;;;;;;;;;;;;3.89;82.08;102460.56;1857699;77;20399;-57
2022/11/10 07:30:25;;;;;;;;;;;;;;;3.95;82.06;102460.69;1886337;76;20151;-57
2022/11/10 07:33:12;;;;;;;;;;;;;;;4.00;82.14;102459.44;1901088;75;20140;-56
2022/11/10 07:35:59;;;;;;;;;;;;;;;4.00;82.16;102463.34;1886566;76;20424;-57
2022/11/10 07:38:45;;;;;;;;;;;;;;;3.99;82.23;102462.91;1899208;75;20218;-56
2022/11/10 07:41:33;;;;;;;;;;;;;;;3.99;82.37;102468.13;1886616;76;20142;-56
2022/11/10 07:44:18;;;;;;;;;;;;;;;4.00;82.46;102471.16;1883577;75;20122;-60
2022/11/10 07:47:04;;;;;;;;;;;;;;;3.98;82.65;102466.36;1873693;77;20118;-52
2022/11/10 07:49:50;;;;;;;;;;;;;;;4.00;82.86;102476.38;1875568;75;20387;-51
2022/11/10 07:52:36;;;;;;;;;;;;;;;4.02;83.12;102473.36;1873733;77;20122;-48
2022/11/10 07:55:22;;;;;;;;;;;;;;;4.00;82.97;102474.67;1873839;77;20185;-50
2022/11/10 07:58:09;;;;;;;;;;;;;;;4.03;83.00;102477.31;1873776;77;20118;-50
2022/11/10 08:00:55;;;;;;;;;;;;;;;4.06;82.90;102476.50;1875561;75;20305;-51
2022/11/10 08:03:41;;;;;;;;;;;;;;;4.13;82.83;102474.84;1875492;75;20144;-48
2022/11/10 08:06:26;;;;;;;;;;;;;;;4.14;82.92;102474.88;1875744;75;20118;-45
2022/11/10 08:09:12;;;;;;;;;;;;;;;4.14;82.92;102474.88;1892017;75;20114;-48
2022/11/10 08:11:58;;;;;;;;;;;;;;;4.13;82.98;102475.74;1877034;76;20447;-45
2022/11/10 08:14:43;;;;;;;;;;;;;;;4.16;82.97;102478.38;1848259;77;20413;-47
2022/11/10 08:17:29;;;;;;;;;;;;;;;4.17;83.05;102474.93;1872569;75;20114;-46
2022/11/10 08:20:16;;;;;;;;;;;;;;;4.18;82.96;102484.48;1866291;76;20169;-46
2022/11/10 08:23:03;;;;;;;;;;;;;;;4.21;83.03;102488.89;1871561;77;20376;-45
2022/11/10 08:25:52;;;;;;;;;;;;;;;4.21;83.08;102483.24;1882040;76;20177;-56
2022/11/10 08:28:36;;;;;;;;;;;;;;;4.18;83.14;102484.92;1863631;77;20149;-56
2022/11/10 08:31:22;;;;;;;;;;;;;;;4.19;83.14;102482.34;1875145;76;20184;-57
2022/11/10 08:34:08;;;;;;;;;;;;;;;4.25;83.16;102485.03;1895650;75;20120;-56
2022/11/10 08:36:54;;;;;;;;;;;;;;;4.27;83.15;102485.50;1882600;76;20109;-56
2022/11/10 08:39:40;;;;;;;;;;;;;;;4.28;83.30;102483.33;1901805;75;20146;-56
2022/11/10 08:42:26;;;;;;;;;;;;;;;4.30;83.29;102477.70;1882594;76;20472;-52
2022/11/10 08:45:12;;;;;;;;;;;;;;;4.36;83.30;102476.51;1884684;75;20123;-58
2022/11/10 08:48:02;;;;;;;;;;;;;;;4.35;83.33;102474.34;1866925;75;20141;-58
2022/11/10 08:50:50;;;;;;;;;;;;;;;4.39;83.30;102471.31;1860913;76;20123;-51
2022/11/10 08:53:36;;;;;;;;;;;;;;;4.37;83.35;102466.51;1884031;76;20160;-48
2022/11/10 08:56:22;;;;;;;;;;;;;;;4.43;83.34;102467.48;1882816;76;20149;-52
2022/11/10 08:59:08;;;;;;;;;;;;;;;4.47;83.34;102474.92;1882807;76;20113;-49
2022/11/10 09:01:53;;;;;;;;;;;;;;;4.49;83.34;102466.69;1882790;76;20387;-49
2022/11/10 09:04:40;;;;;;;;;;;;;;;4.55;83.31;102471.11;1882973;76;20120;-50
2022/11/10 09:07:26;;;;;;;;;;;;;;;4.59;83.27;102474.20;1883745;76;20213;-51
2022/11/10 09:10:12;;;;;;;;;;;;;;;4.62;83.40;102473.82;1883965;76;20196;-51
2022/11/10 09:13:00;;;;;;;;;;;;;;;4.59;83.34;102476.41;1883873;76;20363;-55
2022/11/10 09:15:46;;;;;;;;;;;;;;;4.63;83.47;102469.06;1884329;76;20153;-51
2022/11/10 09:18:31;;;;;;;;;;;;;;;4.64;83.46;102467.32;1884180;76;20175;-49
2022/11/10 09:21:17;;;;;;;;;;;;;;;4.69;83.37;102481.31;1883200;76;20445;-49
2022/11/10 09:24:03;;;;;;;;;;;;;;;4.69;83.45;102471.31;1884236;76;20116;-43
2022/11/10 09:26:49;;;;;;;;;;;;;;;4.68;83.47;102477.37;1891771;76;20110;-43
2022/11/10 09:29:34;;;;;;;;;;;;;;;4.76;83.49;102474.45;1896321;76;20145;-57
2022/11/10 09:32:20;;;;;;;;;;;;;;;4.76;83.47;102471.84;1896350;76;20380;-56
2022/11/10 09:35:08;;;;;;;;;;;;;;;4.75;83.56;102473.99;1890076;75;20437;-43
2022/11/10 09:37:53;;;;;;;;;;;;;;;4.77;83.63;102472.27;1884247;76;20227;-42
2022/11/10 09:40:50;;;;;;;;;;;;;;;4.84;83.66;102472.80;1884279;76;20409;-44
2022/11/10 09:43:41;;;;;;;;;;;;;;;4.87;83.60;102466.33;1884067;76;20163;-45
2022/11/10 09:46:28;;;;;;;;;;;;;;;4.88;83.64;102463.28;1882759;76;20160;-44
2022/11/10 09:49:24;;;;;;;;;;;;;;;4.93;83.66;102469.00;1880760;76;20181;-42
2022/11/10 09:52:12;;;;;;;;;;;;;;;4.97;83.64;102466.87;1857792;77;20117;-41
2022/11/10 09:54:59;;;;;;;;;;;;;;;5.00;83.59;102462.12;1873579;77;20151;-45
2022/11/10 09:57:47;;;;;;;;;;;;;;;5.01;83.52;102462.12;1860938;77;20170;-45
2022/11/10 10:00:35;;;;;;;;;;;;;;;5.03;83.58;102461.73;1873443;77;20117;-45
2022/11/10 10:03:23;;;;;;;;;;;;;;;5.05;83.54;102461.73;1873574;77;20172;-45
2022/11/10 10:06:16;;;;;;;;;;;;;;;5.08;83.49;102463.08;1873774;77;20167;-48
2022/11/10 10:09:06;;;;;;;;;;;;;;;5.16;83.53;102464.03;1873481;77;20386;-47
2022/11/10 10:11:53;;;;;;;;;;;;;;;5.19;83.49;102458.84;1873539;77;20140;-46
2022/11/10 10:14:44;;;;;;;;;;;;;;;5.22;83.41;102458.02;1873651;77;20121;-49
2022/11/10 10:17:30;;;;;;;;;;;;;;;5.23;83.36;102458.45;1843953;78;20118;-46
2022/11/10 10:20:24;;;;;;;;;;;;;;;5.24;83.29;102460.22;1888666;76;20118;-46
2022/11/10 10:23:20;;;;;;;;;;;;;;;5.22;83.27;102459.33;1885840;75;20191;-48
2022/11/10 10:26:07;;;;;;;;;;;;;;;5.23;83.28;102462.38;1873268;77;20384;-48
2022/11/10 10:28:54;;;;;;;;;;;;;;;5.26;83.22;102459.80;1859987;75;20415;-50
2022/11/10 10:31:41;;;;;;;;;;;;;;;5.30;83.14;102461.58;1895693;75;20396;-48
2022/11/10 10:34:33;;;;;;;;;;;;;;;5.32;83.15;102465.08;1904231;75;20454;-42
2022/11/10 10:37:23;;;;;;;;;;;;;;;5.34;83.11;102456.83;1875383;77;20176;-44
2022/11/10 10:40:11;;;;;;;;;;;;;;;5.34;83.10;102459.44;1875277;77;20204;-45
2022/11/10 10:42:58;;;;;;;;;;;;;;;5.31;83.09;102459.84;1844017;78;20221;-49
2022/11/10 10:45:43;;;;;;;;;;;;;;;5.27;83.14;102465.45;1844059;78;20127;-42
2022/11/10 10:48:30;;;;;;;;;;;;;;;5.23;83.25;102457.14;1843874;78;20148;-44
2022/11/10 10:51:29;;;;;;;;;;;;;;;5.20;83.27;102458.41;1854060;77;20123;-44
2022/11/10 10:54:26;;;;;;;;;;;;;;;5.27;83.27;102461.53;1856112;77;20430;-43
2022/11/10 10:57:13;;;;;;;;;;;;;;;5.37;83.16;102455.56;1856135;77;20384;-43
2022/11/10 11:00:19;;;;;;;;;;;;;;;5.43;83.07;102466.94;1856109;77;20167;-41
2022/11/10 11:03:06;;;;;;;;;;;;;;;5.38;83.02;102459.91;1856031;77;20127;-42
2022/11/10 11:05:59;;;;;;;;;;;;;;;5.37;82.97;102459.48;1856121;77;20937;-42
2022/11/10 11:08:56;;;;;;;;;;;;;;;5.37;83.08;102456.87;1856113;77;20131;-44
2022/11/10 11:11:43;;;;;;;;;;;;;;;5.41;83.12;102462.56;1856046;77;20123;-47
2022/11/10 11:14:30;;;;;;;;;;;;;;;5.46;83.03;102465.23;1856102;77;20407;-43
2022/11/10 11:17:22;;;;;;;;;;;;;;;5.49;82.99;102466.98;1860900;76;20149;-44
2022/11/10 11:20:15;;;;;;;;;;;;;;;5.53;82.99;102468.77;1912470;75;20134;-42
2022/11/10 11:23:02;;;;;;;;;;;;;;;5.51;82.91;102475.72;1915140;75;20425;-38
2022/11/10 11:25:49;;;;;;;;;;;;;;;5.50;82.90;102473.98;1887758;76;20148;-45
2022/11/10 11:28:36;;;;;;;;;;;;;;;5.52;82.84;102473.56;1887661;76;20144;-42
2022/11/10 11:31:33;;;;;;;;;;;;;;;5.53;82.75;102473.98;1887562;76;20434;-46
2022/11/10 11:34:23;;;;;;;;;;;;;;;5.54;82.78;102477.06;1887550;76;20150;-44
2022/11/10 11:37:17;;;;;;;;;;;;;;;5.57;82.71;102473.15;1887623;76;20117;-46
2022/11/10 11:40:13;;;;;;;;;;;;;;;5.56;82.64;102474.90;1887604;76;20159;-42
2022/11/10 11:43:04;;;;;;;;;;;;;;;5.58;82.63;102474.92;1887612;76;20302;-44
2022/11/10 11:46:03;;;;;;;;;;;;;;;5.56;82.62;102477.95;1871988;76;20358;-47
2022/11/10 11:48:56;;;;;;;;;;;;;;;5.53;82.65;102480.11;1887566;76;20112;-44
2022/11/10 11:51:50;;;;;;;;;;;;;;;5.53;82.62;102485.34;1877426;76;20423;-44
2022/11/10 11:54:49;;;;;;;;;;;;;;;5.55;82.62;102485.33;1875530;77;20193;-44
2022/11/10 11:57:49;;;;;;;;;;;;;;;5.57;82.58;102486.22;1875333;77;20195;-44
2022/11/10 12:00:45;;;;;;;;;;;;;;;5.62;82.66;102483.22;1875474;77;20121;-43
2022/11/10 12:03:49;;;;;;;;;;;;;;;5.64;82.83;102485.41;1875246;77;20386;-41
2022/11/10 12:06:43;;;;;;;;;;;;;;;5.61;82.75;102488.02;1875315;77;20371;-43
2022/11/10 12:09:39;;;;;;;;;;;;;;;5.64;82.72;102487.16;1875342;77;20144;-43
2022/11/10 12:12:26;;;;;;;;;;;;;;;5.67;82.69;102491.99;1875319;77;20121;-43
2022/11/10 12:15:19;;;;;;;;;;;;;;;5.69;82.64;102487.65;1875347;77;20375;-43
2022/11/10 12:18:13;;;;;;;;;;;;;;;5.72;82.63;102490.74;1874411;77;20431;-46
2022/11/10 12:21:06;;;;;;;;;;;;;;;5.72;82.62;102490.30;1843917;78;20381;-47
2022/11/10 12:23:57;;;;;;;;;;;;;;;5.70;82.65;102487.21;1844037;78;20152;-42
2022/11/10 12:26:47;;;;;;;;;;;;;;;5.67;82.70;102491.13;1843985;78;20190;-44
2022/11/10 12:29:41;;;;;;;;;;;;;;;5.67;82.74;102501.14;1844086;78;20146;-43
2022/11/10 12:32:34;;;;;;;;;;;;;;;5.67;82.78;102492.43;1844015;78;20186;-42
2022/11/10 12:35:21;;;;;;;;;;;;;;;5.70;82.73;102495.95;1844037;78;20119;-44
2022/11/10 12:38:08;;;;;;;;;;;;;;;5.77;82.70;102499.06;1844045;78;20456;-44
2022/11/10 12:40:55;;;;;;;;;;;;;;;5.78;82.71;102502.11;1843975;78;20119;-44
2022/11/10 12:43:58;;;;;;;;;;;;;;;5.79;82.68;102501.27;1843992;78;20179;-47
2022/11/10 12:46:44;;;;;;;;;;;;;;;5.84;82.62;102509.56;1845233;75;20182;-41
2022/11/10 12:49:32;;;;;;;;;;;;;;;5.82;82.71;102512.60;1887662;75;20457;-43
2022/11/10 12:52:19;;;;;;;;;;;;;;;5.80;82.70;102509.53;1889693;75;20213;-41
2022/11/10 12:55:05;;;;;;;;;;;;;;;5.78;82.80;102506.47;1907636;75;20396;-46
2022/11/10 12:57:51;;;;;;;;;;;;;;;5.72;82.96;102509.91;1890061;75;20149;-38
2022/11/10 13:00:38;;;;;;;;;;;;;;;5.67;83.17;102510.28;1874189;77;20316;-41
2022/11/10 13:03:26;;;;;;;;;;;;;;;5.70;83.14;102509.02;1873641;77;20560;-40
2022/11/10 13:06:26;;;;;;;;;;;;;;;5.75;83.05;102511.22;1873494;77;20149;-44
2022/11/10 13:09:22;;;;;;;;;;;;;;;5.78;83.07;102508.64;1868920;76;20169;-42
2022/11/10 13:12:19;;;;;;;;;;;;;;;5.74;83.18;102512.54;1875410;77;20121;-41
2022/11/10 13:15:06;;;;;;;;;;;;;;;5.72;83.20;102515.13;1874390;77;20391;-43
2022/11/10 13:17:53;;;;;;;;;;;;;;;5.70;83.32;102512.94;1873635;77;20421;-46
2022/11/10 13:20:40;;;;;;;;;;;;;;;5.72;83.28;102511.21;1857435;76;20157;-40
2022/11/10 13:23:46;;;;;;;;;;;;;;;5.76;83.22;102515.59;1875003;77;20175;-40
2022/11/10 13:26:33;;;;;;;;;;;;;;;5.80;83.18;102508.66;1875226;77;20506;-46
2022/11/10 13:29:20;;;;;;;;;;;;;;;5.81;83.21;102509.13;1875579;75;20145;-46
2022/11/10 13:32:16;;;;;;;;;;;;;;;5.82;83.26;102507.38;1886757;75;20147;-42
2022/11/10 13:35:16;;;;;;;;;;;;;;;5.79;83.25;102502.98;1907657;75;20173;-42
2022/11/10 13:38:02;;;;;;;;;;;;;;;5.79;83.21;102499.95;1907397;75;20161;-41
2022/11/10 13:40:48;;;;;;;;;;;;;;;5.82;83.15;102504.77;1907565;75;20397;-40
2022/11/10 13:43:34;;;;;;;;;;;;;;;5.85;83.11;102503.05;1907482;75;20174;-44
2022/11/10 13:46:21;;;;;;;;;;;;;;;5.85;83.07;102504.80;1886397;75;20148;-44
2022/11/10 13:49:12;;;;;;;;;;;;;;;5.81;83.16;102502.59;1875385;75;20544;-42
2022/11/10 13:52:05;;;;;;;;;;;;;;;5.79;83.21;102501.27;1882223;76;20200;-41
2022/11/10 13:55:02;;;;;;;;;;;;;;;5.77;83.30;102504.30;1875351;76;20123;-42
2022/11/10 13:58:04;;;;;;;;;;;;;;;5.77;83.37;102505.60;1881686;76;20472;-44
2022/11/10 14:00:51;;;;;;;;;;;;;;;5.79;83.35;102507.80;1886644;76;20152;-51
2022/11/10 14:03:48;;;;;;;;;;;;;;;5.77;83.46;102506.91;1887512;76;20159;-46
2022/11/10 14:06:39;;;;;;;;;;;;;;;5.79;83.48;102513.02;1887513;76;20390;-44
2022/11/10 14:09:30;;;;;;;;;;;;;;;5.76;83.47;102514.30;1887636;76;20136;-43
2022/11/10 14:12:36;;;;;;;;;;;;;;;5.77;83.45;102511.23;1895611;75;20444;-43
2022/11/10 14:15:24;;;;;;;;;;;;;;;5.74;83.45;102509.92;1920554;75;20130;-47
2022/11/10 14:18:17;;;;;;;;;;;;;;;5.69;83.52;102511.17;1920531;75;20430;-43
2022/11/10 14:21:03;;;;;;;;;;;;;;;5.67;83.59;102515.52;1855965;77;20174;-43
2022/11/10 14:23:57;;;;;;;;;;;;;;;5.68;83.57;102507.23;1873918;76;20125;-42
2022/11/10 14:26:44;;;;;;;;;;;;;;;5.69;83.51;102513.78;1858708;76;20286;-39
2022/11/10 14:29:41;;;;;;;;;;;;;;;5.70;83.56;102509.42;1885906;76;20398;-40
2022/11/10 14:32:26;;;;;;;;;;;;;;;5.70;83.62;102511.63;1882946;76;20117;-43
2022/11/10 14:35:20;;;;;;;;;;;;;;;5.72;83.55;102516.88;1887530;76;20143;-40
2022/11/10 14:38:06;;;;;;;;;;;;;;;5.70;83.60;102519.47;1899151;75;20535;-43
2022/11/10 14:40:57;;;;;;;;;;;;;;;5.70;83.61;102515.55;1887425;76;20185;-44
2022/11/10 14:43:43;;;;;;;;;;;;;;;5.71;83.55;102515.98;1914114;75;20114;-45
2022/11/10 14:46:29;;;;;;;;;;;;;;;5.70;83.57;102512.94;1914303;75;20197;-46
2022/11/10 14:49:17;;;;;;;;;;;;;;;5.68;83.62;102510.75;1875978;76;20114;-42